To NAV CANADA Home Page Login to a new session Search on AWWS site Disclaimer Vers la page française équivalente Tips FAQ What's new on the site To the Forecasts and Observations / NOTAM section To "File a Flight Plan" website Publications and other links Update of the User's profile FIC Telephone Numbers My Weather Data Folder Route Weather Data Regional Weather Data Local Weather Data To the Forecasts and Observations / NOTAM section
Request Generated 09/19/2020 at 03:01:53 UTC . Weather information available at that time is displayed.

METAR/TAF

KINGSTON/ON    

METAR CYGK 190300Z 33005KT 15SM SKC 04/00 A3032 RMK LAST STFD OBS/NXT 191000Z SLP272=
METAR CYGK 190200Z 34006KT 15SM FEW070 06/00 A3030 RMK AC1 AC TR SLP265=
METAR CYGK 190100Z 34006KT 15SM FEW070 07/M00 A3030 RMK AC1 SLP263=

*** REMARK        : Forecast period has ended; this was the last TAF issued
*** REMARQUE : La période de prévision est échue; ceci était le dernier TAF qui a été émis
TAF CYGK 181938Z 1820/1903 36012KT P6SM BKN060 TEMPO 1820/1824 SCT060
FM190000 36010KT P6SM FEW060
BECMG 1900/1902 35006KT
RMK NXT FCST WILL BE ISSUED AT 191145Z=
Your time UTC time
Weather data provided by Environment Canada and NAV CANADA